createdAt,value
2022-11-05T00:01:49.371Z,81.84
2022-11-05T00:04:34.563Z,81.43
2022-11-05T00:07:37.060Z,81.41
2022-11-05T00:10:04.870Z,81.72
2022-11-05T00:12:50.221Z,81.86
2022-11-05T00:15:35.218Z,82.13
2022-11-05T00:18:01.845Z,82.41
2022-11-05T00:20:28.445Z,82.25
2022-11-05T00:23:23.347Z,82.61
2022-11-05T00:26:00.923Z,82.24
2022-11-05T00:28:28.408Z,81.79
2022-11-05T00:30:55.280Z,82.31
2022-11-05T00:33:21.883Z,81.94
2022-11-05T00:35:48.516Z,81.77
2022-11-05T00:38:15.127Z,81.76
2022-11-05T00:40:41.712Z,81.91
2022-11-05T00:43:26.980Z,81.69
2022-11-05T00:45:53.551Z,82.01
2022-11-05T00:48:38.628Z,81.93
2022-11-05T00:51:05.478Z,81.53
2022-11-05T00:53:32.189Z,82.09
2022-11-05T00:55:58.832Z,81.79
2022-11-05T00:58:27.206Z,81.14
2022-11-05T01:00:55.073Z,81.41
2022-11-05T01:03:23.560Z,81.30
2022-11-05T01:05:51.937Z,81.35
2022-11-05T01:08:19.565Z,80.70
2022-11-05T01:10:48.144Z,80.64
2022-11-05T01:13:17.130Z,81.12
2022-11-05T01:15:43.982Z,81.17
2022-11-05T01:18:10.763Z,80.60
2022-11-05T01:20:37.494Z,80.84
2022-11-05T01:23:08.865Z,80.65
2022-11-05T01:25:38.872Z,80.40
2022-11-05T01:28:05.595Z,80.62
2022-11-05T01:30:32.238Z,80.73
2022-11-05T01:32:58.861Z,80.09
2022-11-05T01:35:25.605Z,80.30
2022-11-05T01:37:52.194Z,79.80
2022-11-05T01:40:20.484Z,80.01
2022-11-05T01:42:47.421Z,79.96
2022-11-05T01:45:22.738Z,80.50
2022-11-05T01:47:57.978Z,80.26
2022-11-05T01:50:34.922Z,80.12
2022-11-05T01:53:33.352Z,80.29
2022-11-05T01:56:02.009Z,80.79
2022-11-05T01:58:31.766Z,80.42
2022-11-05T02:00:58.500Z,80.41
2022-11-05T02:03:25.317Z,80.21
2022-11-05T02:05:52.364Z,80.57
2022-11-05T02:08:36.736Z,80.88
2022-11-05T02:11:03.581Z,80.89
2022-11-05T02:13:30.174Z,80.86
2022-11-05T02:16:05.201Z,80.76
2022-11-05T02:18:38.139Z,80.79
2022-11-05T02:21:31.658Z,80.83
2022-11-05T02:24:20.464Z,81.24
2022-11-05T02:27:05.838Z,81.68
2022-11-05T02:29:58.883Z,81.63
2022-11-05T02:32:25.549Z,81.94
2022-11-05T02:34:56.025Z,82.07
2022-11-05T02:37:34.231Z,82.11
2022-11-05T02:40:11.476Z,82.06
2022-11-05T02:43:03.944Z,82.33
2022-11-05T02:46:02.938Z,82.35
2022-11-05T02:48:36.170Z,82.63
2022-11-05T02:51:21.218Z,82.58
2022-11-05T02:53:54.972Z,82.88
2022-11-05T02:56:36.122Z,82.42
2022-11-05T02:59:02.986Z,82.99
2022-11-05T03:01:29.684Z,82.83
2022-11-05T03:04:00.828Z,82.62
2022-11-05T03:06:49.230Z,82.66
2022-11-05T03:09:20.673Z,82.68
2022-11-05T03:11:51.446Z,81.88
2022-11-05T03:14:25.150Z,81.98
2022-11-05T03:17:13.016Z,80.83
2022-11-05T03:19:41.861Z,80.25
2022-11-05T03:22:13.405Z,80.16
2022-11-05T03:24:42.999Z,80.49
2022-11-05T03:27:14.323Z,81.50
2022-11-05T03:29:49.000Z,80.92
2022-11-05T03:32:16.110Z,82.03
2022-11-05T03:34:47.314Z,81.77
2022-11-05T03:37:14.050Z,81.66
2022-11-05T03:39:46.084Z,81.07
2022-11-05T03:42:15.740Z,81.07
2022-11-05T03:44:45.086Z,81.12
2022-11-05T03:47:17.259Z,80.66
2022-11-05T03:49:48.933Z,80.76
2022-11-05T03:52:19.887Z,81.04
2022-11-05T03:54:46.647Z,81.07
2022-11-05T03:57:27.761Z,81.08
2022-11-05T03:59:54.392Z,81.56
2022-11-05T04:02:23.277Z,81.88
2022-11-05T04:04:50.016Z,81.52
2022-11-05T04:07:35.114Z,81.02
2022-11-05T04:10:20.342Z,81.54
2022-11-05T04:13:05.528Z,81.61
2022-11-05T04:15:52.257Z,81.60
2022-11-05T04:18:19.138Z,82.56
2022-11-05T04:21:04.402Z,82.38
2022-11-05T04:23:49.475Z,82.73
2022-11-05T04:26:16.086Z,82.86
2022-11-05T04:29:05.251Z,83.35
2022-11-05T04:31:34.376Z,83.17
2022-11-05T04:34:01.096Z,83.42
2022-11-05T04:36:27.711Z,83.43
2022-11-05T04:38:54.284Z,83.42
2022-11-05T04:41:20.866Z,83.80
2022-11-05T04:43:47.514Z,84.17
2022-11-05T04:46:14.293Z,83.76
2022-11-05T04:48:40.885Z,83.78
2022-11-05T04:51:07.467Z,83.51
2022-11-05T04:53:34.125Z,83.71
2022-11-05T04:56:21.390Z,83.97
2022-11-05T04:58:48.142Z,83.41
2022-11-05T05:01:16.053Z,83.79
2022-11-05T05:03:42.762Z,83.90
2022-11-05T05:06:09.687Z,83.53
2022-11-05T05:08:43.586Z,83.68
2022-11-05T05:11:13.559Z,83.68
2022-11-05T05:13:40.243Z,83.11
2022-11-05T05:16:16.112Z,82.89
2022-11-05T05:18:46.273Z,83.37
2022-11-05T05:21:33.778Z,83.09
2022-11-05T05:24:00.706Z,82.86
2022-11-05T05:26:27.670Z,83.39
2022-11-05T05:28:54.310Z,83.22
2022-11-05T05:31:21.757Z,82.78
2022-11-05T05:33:48.364Z,83.22
2022-11-05T05:36:15.030Z,82.89
2022-11-05T05:38:41.654Z,83.53
2022-11-05T05:41:08.295Z,83.21
2022-11-05T05:43:34.869Z,82.86
2022-11-05T05:46:05.100Z,83.21
2022-11-05T05:48:31.705Z,83.59
2022-11-05T05:51:06.186Z,83.06
2022-11-05T05:53:32.870Z,83.44
2022-11-05T05:55:59.555Z,83.41
2022-11-05T05:58:27.416Z,83.63
2022-11-05T06:00:54.407Z,83.57
2022-11-05T06:03:21.239Z,84.02
2022-11-05T06:05:47.956Z,83.84
2022-11-05T06:08:14.522Z,84.08
2022-11-05T06:10:41.201Z,83.81
2022-11-05T06:13:07.924Z,84.13
2022-11-05T06:15:36.113Z,83.80
2022-11-05T06:18:03.078Z,84.04
2022-11-05T06:20:29.740Z,84.36
2022-11-05T06:22:59.377Z,84.74
2022-11-05T06:25:26.314Z,84.54
2022-11-05T06:27:53.484Z,84.80
2022-11-05T06:30:21.756Z,83.81
2022-11-05T06:32:48.393Z,84.45
2022-11-05T06:35:14.984Z,84.12
2022-11-05T06:37:41.595Z,84.33
2022-11-05T06:40:08.578Z,84.33
2022-11-05T06:42:35.356Z,84.59
2022-11-05T06:45:01.936Z,84.18
2022-11-05T06:47:28.673Z,84.43
2022-11-05T06:49:56.859Z,84.04
2022-11-05T06:52:23.421Z,84.45
2022-11-05T06:54:49.990Z,84.00
2022-11-05T06:57:16.748Z,83.81
2022-11-05T06:59:43.491Z,83.78
2022-11-05T07:02:10.787Z,83.85
2022-11-05T07:04:37.507Z,84.07
2022-11-05T07:07:04.144Z,84.15
2022-11-05T07:09:30.783Z,83.88
2022-11-05T07:11:57.374Z,83.94
2022-11-05T07:14:24.106Z,83.89
2022-11-05T07:16:50.879Z,83.58
2022-11-05T07:19:17.460Z,83.95
2022-11-05T07:21:44.193Z,83.63
2022-11-05T07:24:10.924Z,84.08
2022-11-05T07:26:37.542Z,83.97
2022-11-05T07:29:04.096Z,83.97
2022-11-05T07:31:30.810Z,83.96
2022-11-05T07:33:59.329Z,83.66
2022-11-05T07:36:26.247Z,83.20
2022-11-05T07:38:57.378Z,83.41
2022-11-05T07:41:26.886Z,83.29
2022-11-05T07:43:53.558Z,83.07
2022-11-05T07:46:20.315Z,83.08
2022-11-05T07:48:46.923Z,82.76
2022-11-05T07:51:13.544Z,82.87
2022-11-05T07:53:45.138Z,82.48
2022-11-05T07:56:13.008Z,82.16
2022-11-05T07:58:39.624Z,82.62
2022-11-05T08:01:07.301Z,82.69
2022-11-05T08:03:34.262Z,83.12
2022-11-05T08:06:01.057Z,82.75
2022-11-05T08:08:27.655Z,82.99
2022-11-05T08:10:54.284Z,82.62
2022-11-05T08:13:20.955Z,81.95
2022-11-05T08:15:47.638Z,81.23
2022-11-05T08:18:15.984Z,81.71
2022-11-05T08:20:43.123Z,81.88
2022-11-05T08:23:10.137Z,82.33
2022-11-05T08:25:37.284Z,82.11
2022-11-05T08:28:05.665Z,82.01
2022-11-05T08:30:32.304Z,81.77
2022-11-05T08:33:00.741Z,81.43
2022-11-05T08:35:29.518Z,80.94
2022-11-05T08:38:03.058Z,80.46
2022-11-05T08:40:33.776Z,79.68
2022-11-05T08:43:00.997Z,80.35
2022-11-05T08:45:27.794Z,80.27
2022-11-05T08:48:11.127Z,80.62
2022-11-05T08:50:38.046Z,80.43
2022-11-05T08:53:05.322Z,80.06
2022-11-05T08:55:32.181Z,80.55
2022-11-05T08:58:00.040Z,80.35
2022-11-05T09:00:27.294Z,80.23
2022-11-05T09:02:53.874Z,79.98
2022-11-05T09:05:20.530Z,80.12
2022-11-05T09:07:47.233Z,80.22
2022-11-05T09:10:13.805Z,81.07
2022-11-05T09:12:40.694Z,81.15
2022-11-05T09:15:07.956Z,81.42
2022-11-05T09:17:34.592Z,81.17
2022-11-05T09:20:02.155Z,80.81
2022-11-05T09:22:28.753Z,81.12
2022-11-05T09:24:55.324Z,80.98
2022-11-05T09:27:21.995Z,79.92
2022-11-05T09:29:48.582Z,79.64
2022-11-05T09:32:19.126Z,80.07
2022-11-05T09:34:45.815Z,80.45
2022-11-05T09:37:12.542Z,80.11
2022-11-05T09:39:39.120Z,80.07
2022-11-05T09:42:07.842Z,80.97
2022-11-05T09:44:51.645Z,81.20
2022-11-05T09:47:27.749Z,80.78
